Time;durP1;ratioP1;P1;durP2;ratioP2;P2;SDS_P1;SDS_P2;PMS_P1;PMS_P2;Temp;Humidity;BMP_temperature;BMP_pressure;BME280_temperature;BME280_humidity;BME280_pressure;Samples;Min_cycle;Max_cycle;Signal;HPM_P1;HPM_P2
2021/08/02 00:04:59;;;;;;;7.63;2.20;;;24.10;30.70;;;;;;21246960;28;20506;-63
2021/08/02 00:15:01;;;;;;;3.90;1.85;;;24.10;31.10;;;;;;21261049;27;20046;-64
2021/08/02 00:25:03;;;;;;;3.95;2.08;;;23.90;31.60;;;;;;21261784;27;20058;-65
2021/08/02 00:35:05;;;;;;;3.58;1.58;;;23.90;31.40;;;;;;21261428;27;20054;-63
2021/08/02 00:45:21;;;;;;;3.53;1.93;;;23.80;31.10;;;;;;21242270;27;20051;-61
2021/08/02 00:55:23;;;;;;;3.70;1.70;;;23.80;30.90;;;;;;21241013;27;20052;-66
2021/08/02 01:05:24;;;;;;;3.57;1.90;;;23.60;31.30;;;;;;21259339;27;20051;-61
2021/08/02 01:15:26;;;;;;;4.82;1.75;;;23.60;31.80;;;;;;21258451;27;20066;-65
2021/08/02 01:25:36;;;;;;;5.15;2.00;;;23.40;32.10;;;;;;21256195;27;20096;-65
2021/08/02 01:35:39;;;;;;;11.25;5.40;;;23.40;32.40;;;;;;21237934;27;20502;-64
2021/08/02 01:45:58;;;;;;;3.53;2.10;;;23.30;32.80;;;;;;21256184;27;20082;-62
2021/08/02 01:56:26;;;;;;;4.47;1.90;;;23.10;33.30;;;;;;21255299;27;20556;-62
2021/08/02 02:06:34;;;;;;;3.80;2.05;;;23.10;33.10;;;;;;21254133;27;20039;-62
2021/08/02 02:16:46;;;;;;;2.90;1.80;;;23.00;33.30;;;;;;21237000;27;20082;-63
2021/08/02 02:26:50;;;;;;;5.25;1.70;;;22.90;33.40;;;;;;21252014;27;20055;-64
2021/08/02 02:36:53;;;;;;;2.55;1.70;;;22.70;34.00;;;;;;21232786;27;20415;-64
2021/08/02 02:47:04;;;;;;;6.05;2.10;;;22.70;33.90;;;;;;21251036;27;20051;-65
2021/08/02 02:57:18;;;;;;;3.60;2.00;;;22.60;34.50;;;;;;21250806;27;20053;-65
2021/08/02 03:07:41;;;;;;;2.92;1.70;;;22.60;35.40;;;;;;21251159;27;20483;-65
2021/08/02 03:18:01;;;;;;;3.13;1.92;;;22.40;35.90;;;;;;21253859;27;20460;-64
2021/08/02 03:28:33;;;;;;;2.60;1.58;;;22.20;36.80;;;;;;21252765;27;20104;-64
2021/08/02 03:38:55;;;;;;;2.72;1.80;;;22.30;36.80;;;;;;21248620;27;20158;-65
2021/08/02 03:49:00;;;;;;;4.13;1.92;;;22.10;37.30;;;;;;21271389;27;20133;-68
2021/08/02 03:59:02;;;;;;;3.45;1.88;;;;;;;;;;21257316;27;20047;-62
2021/08/02 04:09:12;;;;;;;3.40;1.67;;;;;;;;;;21275289;27;20047;-62
2021/08/02 04:19:24;;;;;;;;;;;;;;;;;;21276678;27;20430;-63
2021/08/02 04:29:42;;;;;;;3.13;1.83;;;;;;;;;;21274711;27;19955;-65
2021/08/02 04:40:07;;;;;;;3.08;1.98;;;;;;;;;;21275101;27;20475;-64
2021/08/02 04:50:28;;;;;;;3.92;1.92;;;;;;;;;;21276028;27;20043;-64
2021/08/02 05:00:42;;;;;;;3.15;1.88;;;;;;;;;;21261231;27;20103;-62
2021/08/02 05:10:51;;;;;;;4.07;1.80;;;;;;;;;;21257958;27;20043;-63
2021/08/02 05:21:05;;;;;;;3.45;2.20;;;;;;;;;;21258265;27;20051;-63
2021/08/02 05:31:10;;;;;;;4.45;2.05;;;;;;;;;;21256915;27;20134;-65
2021/08/02 05:41:16;;;;;;;3.25;1.60;;;;;;;;;;21256076;27;20055;-64
2021/08/02 05:51:20;;;;;;;5.05;2.10;;;;;;;;;;21257118;27;20055;-64
2021/08/02 06:01:23;;;;;;;;;;;;;;;;;;21254847;27;20055;-65
2021/08/02 06:11:27;;;;;;;4.30;2.10;;;;;;;;;;21254157;27;19992;-65
2021/08/02 06:21:30;;;;;;;6.20;2.60;;;;;;;;;;21254123;27;20422;-66
2021/08/02 06:31:35;;;;;;;5.15;1.85;;;;;;;;;;21252003;27;20104;-65
2021/08/02 06:41:38;;;;;;;2.70;1.60;;;;;;;;;;21252109;27;20043;-65
2021/08/02 06:51:42;;;;;;;7.00;2.38;;;;;;;;;;21251010;27;20043;-65
2021/08/02 07:01:46;;;;;;;4.68;2.38;;;;;;;;;;21253991;27;20082;-64
2021/08/02 07:11:49;;;;;;;4.97;2.40;;;;;;;;;;21253108;27;20145;-64
2021/08/02 07:21:56;;;;;;;3.42;1.95;;;;;;;;;;21248957;27;20062;-63
2021/08/02 07:31:59;;;;;;;5.77;2.30;;;;;;;;;;21248357;27;20058;-63
2021/08/02 07:42:02;;;;;;;6.40;2.67;;;;;;;;;;21247649;27;20142;-63
2021/08/02 07:52:05;;;;;;;5.20;2.30;;;;;;;;;;21230579;28;20050;-67
2021/08/02 08:02:09;;;;;;;7.03;2.80;;;;;;;;;;21248116;28;20150;-64
2021/08/02 08:12:13;;;;;;;5.53;2.85;;;;;;;;;;21246862;28;20090;-64
2021/08/02 08:22:21;;;;;;;8.25;3.00;;;26.00;39.40;;;;;;21246700;28;20061;-64
2021/08/02 08:32:25;;;;;;;9.57;3.33;;;25.60;41.10;;;;;;21254603;27;20043;-63
2021/08/02 08:42:29;;;;;;;5.10;3.10;;;25.50;43.00;;;;;;21261171;27;20047;-64
2021/08/02 08:52:35;;;;;;;5.88;2.67;;;25.80;42.20;;;;;;21260300;27;20103;-66
2021/08/02 09:02:41;;;;;;;6.63;3.13;;;26.10;41.70;;;;;;21259909;27;20047;-63
2021/08/02 09:12:49;;;;;;;;;;;26.40;41.00;;;;;;21260561;27;20130;-65
2021/08/02 09:22:53;;;;;;;7.40;2.90;;;26.20;41.20;;;;;;21253833;27;19926;-63
2021/08/02 09:33:04;;;;;;;7.25;3.40;;;26.90;39.80;;;;;;21232928;27;20062;-61
2021/08/02 09:43:12;;;;;;;7.50;2.90;;;27.10;39.30;;;;;;21247756;27;20081;-59
2021/08/02 09:53:20;;;;;;;8.13;3.17;;;27.10;39.40;;;;;;21254344;27;20045;-65
2021/08/02 10:03:28;;;;;;;8.57;3.88;;;27.10;39.40;;;;;;21247936;27;20107;-71
2021/08/02 10:13:33;;;;;;;6.35;3.22;;;27.40;38.30;;;;;;21253171;27;20133;-63
2021/08/02 10:23:38;;;;;;;5.72;2.83;;;27.50;38.10;;;;;;21253993;27;20111;-67
2021/08/02 10:33:42;;;;;;;5.03;3.05;;;27.70;37.00;;;;;;21254972;27;20392;-73
2021/08/02 10:43:44;;;;;;;7.70;2.97;;;27.60;36.80;;;;;;21256302;27;20047;-74
2021/08/02 10:54:00;;;;;;;4.75;2.90;;;27.40;36.70;;;;;;21256869;27;20054;-69
2021/08/02 11:04:11;;;;;;;12.35;3.50;;;27.20;37.60;;;;;;21241619;27;20481;-68
2021/08/02 11:14:20;;;;;;;6.93;2.90;;;27.40;37.10;;;;;;21233608;27;20050;-67
2021/08/02 11:24:22;;;;;;;6.80;3.53;;;27.30;36.90;;;;;;21251492;27;20099;-72
2021/08/02 11:34:26;;;;;;;7.40;3.03;;;27.50;36.20;;;;;;21248841;27;20047;-69
2021/08/02 11:44:28;;;;;;;10.40;4.15;;;27.60;35.90;;;;;;21249402;27;20058;-72
2021/08/02 11:54:30;;;;;;;7.50;3.20;;;27.80;34.20;;;;;;21257718;28;20396;-69
2021/08/02 12:04:42;;;;;;;8.80;3.50;;;28.10;33.60;;;;;;21306292;27;20055;-66
2021/08/02 12:14:45;;;;;;;8.88;5.30;;;28.20;33.60;;;;;;21308594;27;20074;-68
2021/08/02 12:24:58;;;;;;;6.35;3.03;;;28.50;33.20;;;;;;21220497;27;20454;-67
2021/08/02 12:34:59;;;;;;;7.82;3.50;;;29.00;30.30;;;;;;21189962;28;20068;-73
2021/08/02 12:45:01;;;;;;;5.47;2.80;;;29.10;29.20;;;;;;21182645;28;20051;-68
2021/08/02 12:55:04;;;;;;;4.20;2.53;;;29.10;29.90;;;;;;21188903;28;20062;-73
2021/08/02 13:05:07;;;;;;;5.60;2.92;;;29.00;28.90;;;;;;21182457;28;20054;-72
2021/08/02 13:15:10;;;;;;;6.82;3.28;;;29.10;28.70;;;;;;21176936;28;20055;-72
2021/08/02 13:35:34;;;;;;;3.80;2.63;;;29.50;28.20;;;;;;21174104;28;20050;-72
2021/08/02 13:45:38;;;;;;;8.15;2.97;;;29.60;27.80;;;;;;21195212;28;20104;-69
2021/08/02 13:55:40;;;;;;;7.13;3.08;;;29.60;27.90;;;;;;21172977;28;20052;-69
2021/08/02 14:05:42;;;;;;;4.97;2.40;;;29.60;27.30;;;;;;21171414;28;20062;-78
2021/08/02 14:15:54;;;;;;;6.57;3.83;;;29.60;26.90;;;;;;21173831;28;20051;-66
2021/08/02 14:25:57;;;;;;;3.85;2.50;;;29.80;26.80;;;;;;21199748;28;20032;-76
2021/08/02 14:36:07;;;;;;;3.85;2.53;;;29.90;26.40;;;;;;21195062;28;20039;-68
2021/08/02 14:46:16;;;;;;;5.63;2.63;;;30.10;26.00;;;;;;21171073;28;20113;-73
2021/08/02 14:56:18;;;;;;;4.60;2.72;;;29.90;26.20;;;;;;21170821;28;20044;-74
2021/08/02 15:06:21;;;;;;;5.53;2.55;;;30.20;25.80;;;;;;21177337;28;20074;-66
2021/08/02 15:16:27;;;;;;;3.22;2.25;;;30.40;26.50;;;;;;21168936;28;20052;-66
2021/08/02 15:26:31;;;;;;;2.60;2.15;;;30.50;24.40;;;;;;21164531;28;20047;-66
2021/08/02 15:36:34;;;;;;;4.93;2.25;;;30.80;23.20;;;;;;21165476;28;20051;-68
2021/08/02 15:46:40;;;;;;;3.35;2.45;;;30.90;23.00;;;;;;21169831;28;20087;-62
2021/08/02 15:56:43;;;;;;;3.83;2.33;;;30.90;23.10;;;;;;21164669;28;20043;-66
2021/08/02 16:06:54;;;;;;;3.50;2.05;;;30.90;23.00;;;;;;21162727;28;20043;-72
2021/08/02 16:16:57;;;;;;;3.72;2.10;;;30.90;23.60;;;;;;21164133;28;20106;-69
2021/08/02 16:27:01;;;;;;;4.68;2.33;;;30.90;23.80;;;;;;21160772;28;20104;-74
2021/08/02 16:37:03;;;;;;;3.17;2.00;;;30.80;22.40;;;;;;21158162;28;20574;-68
2021/08/02 16:47:04;;;;;;;4.15;2.08;;;30.60;22.50;;;;;;21162301;28;20047;-67
2021/08/02 16:57:06;;;;;;;4.40;1.70;;;30.70;22.50;;;;;;21174691;28;20074;-70
2021/08/02 17:07:07;;;;;;;4.10;2.83;;;30.60;21.00;;;;;;21175637;28;20058;-69
2021/08/02 17:17:09;;;;;;;3.42;1.60;;;30.50;20.80;;;;;;21172931;28;20082;-66
2021/08/02 17:27:10;;;;;;;3.00;1.80;;;30.30;20.80;;;;;;21171092;28;20043;-66
2021/08/02 17:37:12;;;;;;;5.47;3.10;;;30.40;19.70;;;;;;21171546;28;20491;-68
2021/08/02 17:47:13;;;;;;;3.20;1.95;;;30.30;20.50;;;;;;21172006;28;20408;-69
2021/08/02 17:57:14;;;;;;;3.20;2.20;;;30.20;20.90;;;;;;21185501;28;20477;-67
2021/08/02 18:07:17;;;;;;;3.53;1.80;;;30.00;20.90;;;;;;21169456;28;20101;-73
2021/08/02 18:17:18;;;;;;;2.58;1.88;;;30.00;20.80;;;;;;21169131;28;20054;-67
2021/08/02 18:27:20;;;;;;;5.97;2.10;;;29.80;21.30;;;;;;21169082;28;20048;-63
2021/08/02 18:37:21;;;;;;;2.80;2.20;;;29.60;21.20;;;;;;21168073;28;20089;-64
2021/08/02 18:47:23;;;;;;;3.00;2.35;;;29.50;21.80;;;;;;21167435;28;20048;-65
2021/08/02 18:57:24;;;;;;;3.03;2.40;;;29.50;21.80;;;;;;21168018;28;20112;-65
2021/08/02 19:07:26;;;;;;;4.35;2.92;;;29.30;22.40;;;;;;21169556;28;20100;-74
2021/08/02 19:17:29;;;;;;;6.43;3.38;;;29.20;22.50;;;;;;21165156;28;20063;-71
2021/08/02 19:27:31;;;;;;;4.35;2.60;;;29.00;22.30;;;;;;21166718;28;20043;-76
2021/08/02 19:37:37;;;;;;;5.70;3.85;;;28.80;22.90;;;;;;21164956;28;20047;-65
2021/08/02 19:48:03;;;;;;;5.45;3.15;;;28.60;22.50;;;;;;21163563;28;20056;-72
2021/08/02 19:58:05;;;;;;;5.38;3.20;;;28.50;22.60;;;;;;21162118;28;20058;-66
2021/08/02 20:08:08;;;;;;;9.55;5.43;;;28.30;23.10;;;;;;21162932;28;20080;-66
2021/08/02 20:18:09;;;;;;;5.93;3.92;;;28.10;23.60;;;;;;21163617;28;20087;-75
2021/08/02 20:28:13;;;;;;;6.05;3.85;;;28.00;23.60;;;;;;21183264;28;20644;-71
2021/08/02 20:38:22;;;;;;;6.63;3.85;;;27.80;24.60;;;;;;21246641;28;20082;-71
2021/08/02 20:48:23;;;;;;;9.77;6.22;;;27.70;24.80;;;;;;21216944;28;20047;-71
2021/08/02 20:58:25;;;;;;;10.10;5.85;;;27.60;24.60;;;;;;21185193;28;20360;-75
2021/08/02 21:08:45;;;;;;;9.05;5.60;;;27.40;24.60;;;;;;21176837;28;20122;-67
2021/08/02 21:18:55;;;;;;;12.27;7.40;;;27.40;25.20;;;;;;21173625;28;20070;-70
2021/08/02 21:28:57;;;;;;;11.13;8.50;;;27.20;25.20;;;;;;21173882;28;20109;-70
2021/08/02 21:38:58;;;;;;;11.70;8.25;;;27.10;25.20;;;;;;21174311;28;20476;-76
2021/08/02 21:49:00;;;;;;;9.27;6.72;;;26.90;25.80;;;;;;21174084;28;20209;-75
2021/08/02 21:59:01;;;;;;;;;;;26.80;27.00;;;;;;21169986;28;20054;-67
2021/08/02 22:09:02;;;;;;;8.70;7.33;;;26.60;26.60;;;;;;21181495;28;20390;-65
2021/08/02 22:19:03;;;;;;;;;;;26.50;27.10;;;;;;21169350;28;20440;-66
2021/08/02 22:29:05;;;;;;;9.13;5.90;;;26.30;27.30;;;;;;21166573;28;19920;-67
2021/08/02 22:39:09;;;;;;;10.05;6.53;;;26.20;28.10;;;;;;21169443;28;20043;-74
2021/08/02 22:49:14;;;;;;;6.25;4.63;;;26.10;28.30;;;;;;21168353;28;20070;-66
2021/08/02 22:59:19;;;;;;;7.57;3.53;;;25.90;29.00;;;;;;21167910;28;20116;-66
2021/08/02 23:09:21;;;;;;;5.95;3.63;;;25.70;28.70;;;;;;21174668;28;20058;-68
2021/08/02 23:19:23;;;;;;;7.53;3.35;;;25.40;29.20;;;;;;21174238;28;20055;-71
2021/08/02 23:29:29;;;;;;;5.73;3.67;;;25.20;29.60;;;;;;21167283;28;20107;-69
2021/08/02 23:39:35;;;;;;;6.05;4.15;;;25.10;29.30;;;;;;21165843;28;20048;-68
2021/08/02 23:49:37;;;;;;;5.65;4.13;;;25.20;29.70;;;;;;21168166;28;20122;-76
2021/08/02 23:59:38;;;;;;;11.38;4.15;;;25.20;29.90;;;;;;21164654;28;20521;-72
